Time;durP1;ratioP1;P1;durP2;ratioP2;P2;SDS_P1;SDS_P2;PMS_P1;PMS_P2;Temp;Humidity;BMP_temperature;BMP_pressure;BME280_temperature;BME280_humidity;BME280_pressure;Samples;Min_cycle;Max_cycle;Signal;HPM_P1;HPM_P2
2023/11/23 06:00:49;;;;;;;35.43;14.13;;;;;;;;;;5845792;23;20879;-73
2023/11/23 06:03:15;;;;;;;39.23;16.07;;;;;;;;;;4934802;29;20429;-72
2023/11/23 06:05:41;;;;;;;44.73;14.73;;;;;;;;;;4934578;29;20424;-73
2023/11/23 06:08:06;;;;;;;35.53;14.03;;;;;;;;;;4934495;29;20448;-72
2023/11/23 06:10:33;;;;;;;38.83;14.33;;;;;;;;;;4934095;29;20860;-74
2023/11/23 06:12:59;;;;;;;41.93;13.90;;;;;;;;;;4934834;29;20461;-72
2023/11/23 06:15:25;;;;;;;33.47;14.57;;;;;;;;;;4935534;29;20446;-72
2023/11/23 06:17:51;;;;;;;35.63;14.23;;;;;;;;;;4935022;29;20452;-72
2023/11/23 06:20:18;;;;;;;37.53;14.17;;;;;;;;;;4934587;29;20413;-72
2023/11/23 06:22:44;;;;;;;55.33;16.20;;;;;;;;;;4934801;29;20485;-73
2023/11/23 06:25:12;;;;;;;39.67;14.57;;;;;;;;;;4932902;29;20901;-72
2023/11/23 06:27:38;;;;;;;29.37;13.63;;;;;;;;;;4934457;29;20508;-73
2023/11/23 06:30:05;;;;;;;31.77;13.07;;;;;;;;;;4938823;29;20500;-73
2023/11/23 06:32:31;;;;;;;40.70;14.30;;;;;;;;;;4941477;29;20461;-72
2023/11/23 06:34:57;;;;;;;36.67;14.80;;;;;;;;;;4935902;29;20890;-72
2023/11/23 06:37:23;;;;;;;39.97;15.03;;;;;;;;;;4933958;29;20521;-72
2023/11/23 06:39:52;;;;;;;36.77;14.50;;;;;;;;;;4933313;29;20426;-72
2023/11/23 06:42:19;;;;;;;32.73;14.03;;;;;;;;;;4930923;29;20540;-71
2023/11/23 06:44:45;;;;;;;26.87;11.43;;;;;;;;;;4932945;29;20476;-70
2023/11/23 06:47:11;;;;;;;29.03;12.20;;;;;;;;;;4932551;29;20831;-71
2023/11/23 06:49:40;;;;;;;33.57;13.23;;;;;;;;;;4933932;29;20527;-71
2023/11/23 06:52:09;;;;;;;24.17;10.50;;;;;;;;;;4933455;29;20465;-69
2023/11/23 06:54:35;;;;;;;32.00;11.80;;;;;;;;;;4933697;29;20428;-71
2023/11/23 06:57:01;;;;;;;23.90;10.13;;;;;;;;;;4933731;29;20521;-72
2023/11/23 06:59:27;;;;;;;26.70;9.77;;;;;;;;;;4942513;29;20960;-72
2023/11/23 07:01:53;;;;;;;24.73;10.80;;;;;;;;;;4929071;29;20805;-73
2023/11/23 07:04:21;;;;;;;31.50;11.37;;;;;;;;;;4940976;29;20456;-73
2023/11/23 07:06:47;;;;;;;31.60;11.43;;;;;;;;;;4933644;29;20464;-73
2023/11/23 07:09:13;;;;;;;25.10;10.43;;;;;;;;;;4932301;29;20430;-74
2023/11/23 07:11:40;;;;;;;25.80;9.80;;;;;;;;;;4933898;29;20452;-74
2023/11/23 07:14:06;;;;;;;24.27;10.70;;;;;;;;;;4934311;29;20461;-74
2023/11/23 07:16:32;;;;;;;26.83;10.90;;;;;;;;;;4934344;29;20421;-74
2023/11/23 07:18:58;;;;;;;27.53;11.57;;;;;;;;;;4934070;29;20417;-74
2023/11/23 07:21:24;;;;;;;38.43;12.10;;;;;;;;;;4935240;29;20429;-74
2023/11/23 07:23:50;;;;;;;28.40;11.50;;;;;;;;;;4937592;29;20884;-74
2023/11/23 07:26:16;;;;;;;22.40;10.70;;;;;;;;;;4933092;29;20422;-75
2023/11/23 07:28:42;;;;;;;31.30;11.03;;;;;;;;;;4935897;29;20417;-73
2023/11/23 07:31:09;;;;;;;25.93;11.53;;;;;;;;;;4937312;29;20785;-74
2023/11/23 07:33:35;;;;;;;29.37;10.23;;;;;;;;;;4935576;29;20857;-73
2023/11/23 07:36:02;;;;;;;27.23;10.60;;;;;;;;;;4935277;29;20450;-73
2023/11/23 07:38:28;;;;;;;19.97;9.53;;;;;;;;;;4936857;29;21034;-72
2023/11/23 07:40:56;;;;;;;30.80;9.83;;;;;;;;;;4936746;29;20433;-73
2023/11/23 07:43:23;;;;;;;23.45;9.57;;;;;;;;;;4936837;29;20417;-74
2023/11/23 07:45:50;;;;;;;24.87;10.83;;;;;;;;;;4942840;29;20185;-73
2023/11/23 07:48:16;;;;;;;20.13;9.50;;;;;;;;;;4939262;29;20425;-72
2023/11/23 07:50:43;;;;;;;20.07;9.30;;;;;;;;;;4936458;29;20971;-72
2023/11/23 07:53:09;;;;;;;22.33;8.70;;;;;;;;;;4936433;29;20470;-72
2023/11/23 07:55:35;;;;;;;18.97;9.33;;;;;;;;;;4936437;29;20836;-72
2023/11/23 07:58:01;;;;;;;25.20;9.07;;;;;;;;;;4936342;29;20448;-72
2023/11/23 08:00:27;;;;;;;15.17;8.10;;;;;;;;;;4936370;29;20488;-72
2023/11/23 08:02:54;;;;;;;19.90;8.50;;;;;;;;;;4936566;29;20418;-72
2023/11/23 08:08:24;;;;;;;19.83;8.53;;;;;;;;;;4930748;29;20437;-73
2023/11/23 08:10:50;;;;;;;23.43;9.70;;;;;;;;;;4943716;28;20520;-72
2023/11/23 08:13:16;;;;;;;21.73;9.00;;;;;;;;;;4936192;29;20958;-72
2023/11/23 08:15:42;;;;;;;16.83;8.27;;;;;;;;;;4936236;29;20414;-72
2023/11/23 08:18:09;;;;;;;19.70;8.60;;;;;;;;;;4935927;29;20447;-74
2023/11/23 08:20:36;;;;;;;15.77;7.50;;;;;;;;;;4936213;29;20856;-73
2023/11/23 08:23:02;;;;;;;17.10;8.43;;;;;;;;;;4936189;29;20920;-72
2023/11/23 08:25:28;;;;;;;19.70;8.23;;;;;;;;;;4935785;29;20425;-72
2023/11/23 08:27:54;;;;;;;18.63;7.70;;;;;;;;;;4935431;29;20424;-72
2023/11/23 08:30:21;;;;;;;18.40;7.90;;;;;;;;;;4936039;29;20414;-71
2023/11/23 08:32:47;;;;;;;14.10;6.73;;;;;;;;;;4936568;29;20457;-72
2023/11/23 08:35:14;;;;;;;18.30;7.77;;;;;;;;;;4935478;29;20909;-71
2023/11/23 08:37:39;;;;;;;14.53;6.70;;;;;;;;;;4935224;29;20445;-71
2023/11/23 08:40:07;;;;;;;12.90;6.33;;;;;;;;;;4930185;29;20454;-71
2023/11/23 08:42:36;;;;;;;12.43;7.53;;;;;;;;;;4933700;29;20446;-70
2023/11/23 08:45:02;;;;;;;15.57;8.43;;;;;;;;;;4934850;29;20775;-71
2023/11/23 08:47:28;;;;;;;20.50;8.50;;;;;;;;;;4934165;29;20426;-70
2023/11/23 08:49:55;;;;;;;15.93;7.80;;;;;;;;;;4935488;29;20488;-75
2023/11/23 08:52:21;;;;;;;17.27;8.60;;;;;;;;;;4935198;29;20879;-72
2023/11/23 08:54:47;;;;;;;13.60;5.87;;;;;;;;;;4933614;29;20456;-72
2023/11/23 08:57:13;;;;;;;13.60;7.20;;;;;;;;;;4925487;29;20466;-73
2023/11/23 08:59:40;;;;;;;15.33;6.50;;;;;;;;;;4916514;29;20791;-73
2023/11/23 09:02:07;;;;;;;18.73;6.50;;;;;;;;;;4930306;29;20464;-71
2023/11/23 09:04:39;;;;;;;14.10;7.50;;;;;;;;;;4935261;29;20711;-72
2023/11/23 09:07:05;;;;;;;14.97;7.50;;;;;;;;;;4937662;29;20425;-71
2023/11/23 09:09:31;;;;;;;14.40;6.33;;;;;;;;;;4935128;29;20409;-72
2023/11/23 09:11:59;;;;;;;13.50;6.47;;;;;;;;;;4934879;29;20445;-72
2023/11/23 09:14:25;;;;;;;16.00;6.77;;;;;;;;;;4933673;29;20426;-71
2023/11/23 09:16:51;;;;;;;12.60;6.10;;;;;;;;;;4934789;29;20931;-71
2023/11/23 09:19:17;;;;;;;11.63;6.00;;;;;;;;;;4934835;29;21009;-71
2023/11/23 09:21:46;;;;;;;26.23;7.80;;;;;;;;;;4934771;29;20989;-71
2023/11/23 09:24:12;;;;;;;15.13;5.70;;;;;;;;;;4934727;29;20426;-71
2023/11/23 09:26:38;;;;;;;12.53;6.90;;;;;;;;;;4934669;29;20444;-71
2023/11/23 09:29:05;;;;;;;22.10;6.57;;;;;;;;;;4933355;29;20433;-71
2023/11/23 09:31:33;;;;;;;9.90;5.50;;;;;;;;;;4934776;29;20532;-71
2023/11/23 09:33:59;;;;;;;23.97;7.33;;;;;;;;;;4934454;29;20468;-72
2023/11/23 09:36:28;;;;;;;10.23;5.50;;;;;;;;;;4942765;29;21180;-72
2023/11/23 09:38:54;;;;;;;12.43;5.60;;;;;;;;;;4958211;28;20853;-73
2023/11/23 09:41:22;;;;;;;12.73;5.80;;;;;;;;;;4960100;28;20504;-72
2023/11/23 09:43:50;;;;;;;10.63;5.53;;;;;;;;;;4936383;29;20430;-70
2023/11/23 09:46:16;;;;;;;14.70;6.77;;;;;;;;;;4924356;29;20933;-70
2023/11/23 09:48:45;;;;;;;10.43;6.20;;;;;;;;;;4938661;29;20414;-71
2023/11/23 09:51:11;;;;;;;19.80;6.87;;;;;;;;;;4935831;28;20956;-72
2023/11/23 09:53:37;;;;;;;8.63;5.47;;;;;;;;;;4916963;29;20699;-72
2023/11/23 09:56:06;;;;;;;10.57;5.17;;;;;;;;;;4940210;29;20437;-72
2023/11/23 09:58:33;;;;;;;15.87;4.47;;;;;;;;;;4934555;29;20402;-71
2023/11/23 10:01:03;;;;;;;9.17;4.80;;;;;;;;;;4922373;29;20931;-70
2023/11/23 10:03:33;;;;;;;13.10;6.40;;;;;;;;;;4918195;29;20441;-71
2023/11/23 10:05:59;;;;;;;8.70;5.00;;;;;;;;;;4917596;29;20522;-73
2023/11/23 10:08:27;;;;;;;8.50;4.83;;;;;;;;;;4934398;29;20485;-72
2023/11/23 10:10:53;;;;;;;9.80;5.07;;;;;;;;;;4935198;29;20682;-71
2023/11/23 10:13:21;;;;;;;9.37;4.77;;;;;;;;;;4934494;29;20952;-71
2023/11/23 10:15:48;;;;;;;8.10;5.00;;;;;;;;;;4933087;29;20428;-71
2023/11/23 10:18:14;;;;;;;9.73;5.27;;;;;;;;;;4952921;29;20508;-71
2023/11/23 10:20:46;;;;;;;13.77;6.50;;;;;;;;;;4953689;28;20892;-71
2023/11/23 10:23:13;;;;;;;13.50;6.07;;;;;;;;;;4953351;28;20421;-70
2023/11/23 10:25:40;;;;;;;11.40;6.10;;;;;;;;;;4953422;28;20428;-71
2023/11/23 10:28:07;;;;;;;16.63;5.33;;;;;;;;;;4953233;28;20787;-71
2023/11/23 10:30:33;;;;;;;14.50;4.90;;;;;;;;;;4934574;28;20489;-71
2023/11/23 10:33:00;;;;;;;12.57;5.37;;;;;;;;;;4931193;29;20458;-72
2023/11/23 10:35:35;;;;;;;11.87;5.20;;;;;;;;;;4926844;29;20431;-73
2023/11/23 10:38:01;;;;;;;5.83;3.70;;;;;;;;;;4941921;29;20424;-71
2023/11/23 10:40:29;;;;;;;6.67;3.80;;;;;;;;;;4939333;29;20410;-71
2023/11/23 10:42:55;;;;;;;8.40;4.53;;;;;;;;;;4933736;29;20787;-71
2023/11/23 10:45:22;;;;;;;9.50;4.90;;;;;;;;;;4936832;29;20424;-70
2023/11/23 10:47:51;;;;;;;7.80;4.73;;;;;;;;;;4936307;29;20413;-71
2023/11/23 10:50:18;;;;;;;8.07;4.40;;;;;;;;;;4932035;29;20415;-70
2023/11/23 10:52:45;;;;;;;8.93;4.93;;;;;;;;;;4931061;29;20540;-72
2023/11/23 10:55:10;;;;;;;10.27;4.20;;;;;;;;;;4933849;29;20417;-71
2023/11/23 10:57:42;;;;;;;10.37;4.40;;;;;;;;;;4932622;29;20428;-71
2023/11/23 11:03:12;;;;;;;8.57;4.37;;;;;;;;;;4933932;29;20845;-72
2023/11/23 11:05:45;;;;;;;9.73;4.80;;;;;;;;;;4937144;29;20413;-72
2023/11/23 11:08:16;;;;;;;5.30;3.00;;;;;;;;;;4937170;29;20422;-72
2023/11/23 11:10:42;;;;;;;8.73;4.17;;;;;;;;;;4936560;29;20933;-73
2023/11/23 11:13:11;;;;;;;4.87;3.77;;;;;;;;;;4937294;29;20461;-73
2023/11/23 11:15:48;;;;;;;8.07;4.20;;;;;;;;;;4935857;29;21056;-71
2023/11/23 11:18:20;;;;;;;3.80;3.03;;;;;;;;;;4936885;29;20468;-71
2023/11/23 11:20:59;;;;;;;7.40;3.63;;;;;;;;;;4936968;29;20492;-72
2023/11/23 11:23:35;;;;;;;8.37;4.37;;;;;;;;;;4935212;29;20410;-72
2023/11/23 11:26:06;;;;;;;9.20;3.87;;;;;;;;;;4920963;29;20441;-72
2023/11/23 11:28:33;;;;;;;6.80;4.00;;;;;;;;;;4926956;29;20860;-71
2023/11/23 11:31:14;;;;;;;7.30;3.60;;;;;;;;;;4936604;29;21002;-71
2023/11/23 11:33:40;;;;;;;10.97;3.80;;;;;;;;;;4939244;29;20469;-71
2023/11/23 11:36:07;;;;;;;12.77;4.60;;;;;;;;;;4936611;29;20426;-71
2023/11/23 11:38:35;;;;;;;6.93;4.50;;;;;;;;;;4936609;29;20429;-71
2023/11/23 11:41:03;;;;;;;10.97;4.67;;;;;;;;;;4936519;29;20516;-72
2023/11/23 11:43:29;;;;;;;8.00;5.03;;;;;;;;;;4936597;29;20445;-71
2023/11/23 11:45:56;;;;;;;8.70;4.40;;;;;;;;;;4936219;29;20445;-71
2023/11/23 11:48:22;;;;;;;12.00;6.03;;;;;;;;;;4936685;29;20458;-72
2023/11/23 11:50:57;;;;;;;14.93;5.17;;;;;;;;;;4936481;29;20449;-71
2023/11/23 11:53:23;;;;;;;7.93;4.80;;;;;;;;;;4935076;29;20457;-72
2023/11/23 11:55:51;;;;;;;6.83;3.90;;;;;;;;;;4936444;29;20812;-72
2023/11/23 11:58:18;;;;;;;7.80;4.63;;;;;;;;;;4937375;29;20413;-74
2023/11/23 12:00:44;;;;;;;9.70;5.23;;;;;;;;;;4930485;29;20478;-72
2023/11/23 12:03:11;;;;;;;17.80;4.87;;;;;;;;;;4928235;29;20508;-71
2023/11/23 12:05:40;;;;;;;8.30;5.10;;;;;;;;;;4934685;28;20423;-73
2023/11/23 12:08:06;;;;;;;7.47;4.50;;;;;;;;;;4922645;29;20434;-72
2023/11/23 12:10:36;;;;;;;8.33;4.03;;;;;;;;;;4938778;29;20449;-72
2023/11/23 12:13:02;;;;;;;6.80;3.90;;;;;;;;;;4938999;29;20465;-72
2023/11/23 12:15:29;;;;;;;6.20;3.93;;;;;;;;;;4933559;29;20434;-73
2023/11/23 12:17:56;;;;;;;9.20;4.77;;;;;;;;;;4933655;29;20425;-72
2023/11/23 12:20:23;;;;;;;11.67;4.73;;;;;;;;;;4937281;29;20538;-72
2023/11/23 12:22:49;;;;;;;13.90;6.70;;;;;;;;;;4937393;29;20477;-72
2023/11/23 12:25:18;;;;;;;9.83;4.63;;;;;;;;;;4937456;29;20427;-72
2023/11/23 12:27:44;;;;;;;5.60;3.60;;;;;;;;;;4937788;29;20870;-72
2023/11/23 12:30:11;;;;;;;4.73;3.10;;;;;;;;;;4937633;29;21018;-72
2023/11/23 12:32:37;;;;;;;6.67;3.23;;;;;;;;;;4941039;29;20982;-72
2023/11/23 12:35:03;;;;;;;3.80;3.40;;;;;;;;;;4935072;29;20435;-72
2023/11/23 12:37:29;;;;;;;6.60;3.07;;;;;;;;;;4930360;29;20418;-70
2023/11/23 12:39:55;;;;;;;6.70;3.67;;;;;;;;;;4928854;29;20476;-71
2023/11/23 12:42:22;;;;;;;7.07;3.60;;;;;;;;;;4936507;29;20505;-72
2023/11/23 12:44:50;;;;;;;5.40;3.80;;;;;;;;;;4932173;29;20426;-71
2023/11/23 12:47:18;;;;;;;6.93;4.33;;;;;;;;;;4920859;29;20429;-73
2023/11/23 12:49:44;;;;;;;5.77;3.30;;;;;;;;;;4917885;29;20449;-72
2023/11/23 12:52:10;;;;;;;4.97;2.70;;;;;;;;;;4917417;29;20903;-72
2023/11/23 12:54:36;;;;;;;7.67;3.00;;;;;;;;;;4917530;29;20415;-71
2023/11/23 12:57:02;;;;;;;8.63;3.33;;;;;;;;;;4917686;29;20920;-71
2023/11/23 12:59:28;;;;;;;4.63;2.43;;;;;;;;;;4923424;29;20418;-73
2023/11/23 13:01:57;;;;;;;5.87;2.90;;;;;;;;;;4935392;29;20821;-73
2023/11/23 13:04:26;;;;;;;6.63;3.47;;;;;;;;;;4936766;29;20418;-72
2023/11/23 13:06:52;;;;;;;4.30;2.60;;;;;;;;;;4935483;29;20422;-72
2023/11/23 13:09:22;;;;;;;3.10;2.70;;;;;;;;;;4935644;29;20973;-73
2023/11/23 13:11:49;;;;;;;3.83;2.33;;;;;;;;;;4935948;29;20911;-72
2023/11/23 13:14:17;;;;;;;2.63;2.23;;;;;;;;;;4935800;29;20461;-72
2023/11/23 13:16:44;;;;;;;3.00;2.03;;;;;;;;;;4929202;29;20798;-73
2023/11/23 13:19:11;;;;;;;5.30;2.40;;;;;;;;;;4927479;29;20470;-73
2023/11/23 13:21:38;;;;;;;3.20;1.80;;;;;;;;;;4921108;29;20452;-73
2023/11/23 13:24:05;;;;;;;4.63;2.40;;;;;;;;;;4922649;29;20446;-73
2023/11/23 13:26:31;;;;;;;3.53;2.40;;;;;;;;;;4915487;29;20418;-73
2023/11/23 13:28:57;;;;;;;2.40;1.87;;;;;;;;;;4915822;29;20422;-73
2023/11/23 13:31:24;;;;;;;3.90;2.00;;;;;;;;;;4915824;29;20534;-73
2023/11/23 13:33:49;;;;;;;4.83;1.83;;;;;;;;;;4915786;29;20987;-73
2023/11/23 13:36:18;;;;;;;3.40;1.90;;;;;;;;;;4915901;29;20410;-72
2023/11/23 13:38:44;;;;;;;3.63;2.00;;;;;;;;;;4915837;29;20419;-74
2023/11/23 13:41:10;;;;;;;4.97;2.57;;;;;;;;;;4915869;29;20497;-73
2023/11/23 13:43:37;;;;;;;3.70;2.07;;;;;;;;;;4915790;29;20539;-73
2023/11/23 13:46:03;;;;;;;3.07;1.90;;;;;;;;;;4929958;29;20437;-73
2023/11/23 13:48:31;;;;;;;3.23;2.10;;;;;;;;;;4935023;29;20418;-72
2023/11/23 13:50:57;;;;;;;2.73;1.53;;;;;;;;;;4934911;29;20872;-72
2023/11/23 13:53:23;;;;;;;4.17;2.10;;;;;;;;;;4934507;29;20465;-72
2023/11/23 13:55:50;;;;;;;3.63;1.77;;;;;;;;;;4935335;29;20492;-75
2023/11/23 13:58:16;;;;;;;2.40;1.77;;;;;;;;;;4916186;29;20419;-74
2023/11/23 14:00:43;;;;;;;2.63;1.87;;;;;;;;;;4915472;29;20489;-73
2023/11/23 14:03:09;;;;;;;1.67;1.53;;;;;;;;;;4915988;29;20428;-74
2023/11/23 14:05:35;;;;;;;10.60;2.20;;;;;;;;;;4937650;29;20592;-73
2023/11/23 14:08:03;;;;;;;2.00;1.43;;;;;;;;;;4934355;29;20417;-73
2023/11/23 14:10:29;;;;;;;2.50;1.93;;;;;;;;;;4934539;29;20450;-73
2023/11/23 14:12:57;;;;;;;2.70;1.60;;;;;;;;;;4934387;29;20556;-73
2023/11/23 14:15:24;;;;;;;7.07;1.83;;;;;;;;;;4934658;29;20538;-73
2023/11/23 14:17:52;;;;;;;1.13;1.07;;;;;;;;;;4934537;29;20465;-74
2023/11/23 14:20:18;;;;;;;1.80;1.40;;;;;;;;;;4934871;29;20812;-74
2023/11/23 14:22:49;;;;;;;5.20;1.90;;;;;;;;;;4934439;29;20527;-73
2023/11/23 14:25:17;;;;;;;1.60;1.40;;;;;;;;;;4934431;29;20759;-74
2023/11/23 14:27:46;;;;;;;1.30;1.20;;;;;;;;;;4934230;29;20500;-74
2023/11/23 14:30:12;;;;;;;1.20;1.13;;;;;;;;;;4934062;29;20428;-72
2023/11/23 14:32:40;;;;;;;2.10;1.60;;;;;;;;;;4928581;29;21016;-73
2023/11/23 14:35:06;;;;;;;1.87;1.30;;;;;;;;;;4932165;29;20516;-69
2023/11/23 14:37:32;;;;;;;1.23;1.17;;;;;;;;;;4925638;29;20433;-75
2023/11/23 14:39:59;;;;;;;2.63;1.20;;;;;;;;;;4921587;29;20425;-78
2023/11/23 14:42:26;;;;;;;1.77;1.10;;;;;;;;;;4929401;29;20469;-71
2023/11/23 14:44:53;;;;;;;0.90;0.80;;;;;;;;;;4923854;29;20901;-74
2023/11/23 14:47:26;;;;;;;4.73;1.20;;;;;;;;;;4936898;29;20420;-72
2023/11/23 14:49:52;;;;;;;1.83;1.30;;;;;;;;;;4937035;29;20465;-71
2023/11/23 14:52:19;;;;;;;3.07;1.10;;;;;;;;;;4937686;29;20430;-72
2023/11/23 14:54:48;;;;;;;1.57;1.50;;;;;;;;;;4937534;29;20409;-72
2023/11/23 14:57:14;;;;;;;3.27;1.63;;;;;;;;;;4937538;29;20416;-73
2023/11/23 14:59:41;;;;;;;1.20;1.10;;;;;;;;;;4937660;29;20826;-72
2023/11/23 15:02:08;;;;;;;1.30;1.20;;;;;;;;;;4937721;29;20893;-73
2023/11/23 15:04:34;;;;;;;4.57;2.20;;;;;;;;;;4945689;29;20451;-72
2023/11/23 15:07:02;;;;;;;3.83;1.80;;;;;;;;;;4943766;29;20492;-72
2023/11/23 15:09:29;;;;;;;3.50;1.80;;;;;;;;;;4945343;29;20417;-72
2023/11/23 15:11:55;;;;;;;2.73;1.90;;;;;;;;;;4940799;29;20433;-72
2023/11/23 15:14:21;;;;;;;4.70;2.33;;;;;;;;;;4938095;29;20556;-72
2023/11/23 15:16:50;;;;;;;3.67;1.77;;;;;;;;;;4937451;29;20475;-72
2023/11/23 15:19:16;;;;;;;2.93;1.93;;;;;;;;;;4937909;29;20421;-73
2023/11/23 15:21:42;;;;;;;2.13;1.77;;;;;;;;;;4938248;29;20429;-74
2023/11/23 15:24:09;;;;;;;3.10;1.63;;;;;;;;;;4937230;29;20917;-72
2023/11/23 15:26:35;;;;;;;4.70;2.00;;;;;;;;;;4937111;29;20824;-72
2023/11/23 15:29:04;;;;;;;10.10;2.20;;;;;;;;;;4937469;29;20417;-72
2023/11/23 15:31:30;;;;;;;2.20;1.90;;;;;;;;;;4937619;29;20992;-73
2023/11/23 15:33:56;;;;;;;5.83;1.80;;;;;;;;;;4937164;29;20465;-71
2023/11/23 15:36:22;;;;;;;2.07;1.67;;;;;;;;;;4936635;29;20560;-72
2023/11/23 15:38:48;;;;;;;2.83;1.77;;;;;;;;;;4935858;29;20480;-73
2023/11/23 15:41:17;;;;;;;4.00;2.10;;;;;;;;;;4936343;29;20434;-72
2023/11/23 15:43:43;;;;;;;8.33;2.10;;;;;;;;;;4935138;29;20424;-72
2023/11/23 15:46:11;;;;;;;8.03;2.20;;;;;;;;;;4936397;29;20413;-72
2023/11/23 15:48:38;;;;;;;8.13;2.43;;;;;;;;;;4936785;29;20496;-73
2023/11/23 15:51:04;;;;;;;2.90;2.08;;;;;;;;;;4925902;29;20525;-72
2023/11/23 15:53:31;;;;;;;3.97;1.77;;;;;;;;;;4933069;29;20621;-73
2023/11/23 15:55:58;;;;;;;2.93;2.07;;;;;;;;;;4936403;29;20409;-72
2023/11/23 15:58:24;;;;;;;3.50;2.20;;;;;;;;;;4922636;29;20410;-73
2023/11/23 16:00:50;;;;;;;3.73;2.00;;;;;;;;;;4936554;29;20894;-74
2023/11/23 16:03:16;;;;;;;3.20;1.83;;;;;;;;;;4935208;29;20422;-74
2023/11/23 16:05:42;;;;;;;4.83;2.57;;;;;;;;;;4935897;29;20425;-74
2023/11/23 16:08:09;;;;;;;4.20;2.50;;;;;;;;;;4936210;29;20844;-73
2023/11/23 16:10:35;;;;;;;4.77;3.20;;;;;;;;;;4936254;29;20437;-72
2023/11/23 16:13:01;;;;;;;7.00;3.33;;;;;;;;;;4935189;29;20496;-72
2023/11/23 16:15:27;;;;;;;4.40;3.10;;;;;;;;;;4935454;29;21050;-73
2023/11/23 16:17:54;;;;;;;5.37;2.97;;;;;;;;;;4934104;29;20426;-72
2023/11/23 16:20:21;;;;;;;5.20;3.03;;;;;;;;;;4935785;29;20557;-72
2023/11/23 16:22:49;;;;;;;5.90;2.70;;;;;;;;;;4936103;29;20833;-73
2023/11/23 16:25:15;;;;;;;7.40;2.33;;;;;;;;;;4928696;29;20423;-74
2023/11/23 16:27:41;;;;;;;2.70;2.27;;;;;;;;;;4931055;29;20959;-76
2023/11/23 16:30:09;;;;;;;5.80;2.17;;;;;;;;;;4935758;29;20428;-72
2023/11/23 16:32:35;;;;;;;4.43;2.63;;;;;;;;;;4933163;29;20528;-75
2023/11/23 16:35:03;;;;;;;3.20;1.93;;;;;;;;;;4931797;29;20418;-72
2023/11/23 16:37:29;;;;;;;4.77;2.00;;;;;;;;;;4935340;29;20410;-72
2023/11/23 16:39:55;;;;;;;1.90;1.77;;;;;;;;;;4935783;29;20461;-73
2023/11/23 16:42:21;;;;;;;1.67;1.60;;;;;;;;;;4935608;29;20437;-72
2023/11/23 16:44:47;;;;;;;3.27;1.70;;;;;;;;;;4935896;29;20434;-73
2023/11/23 16:47:13;;;;;;;3.40;1.83;;;;;;;;;;4934727;29;20425;-72
2023/11/23 16:49:39;;;;;;;6.33;2.73;;;;;;;;;;4936916;29;20444;-73
2023/11/23 16:52:05;;;;;;;9.27;2.80;;;;;;;;;;4935368;29;20442;-71
2023/11/23 16:54:31;;;;;;;3.27;2.27;;;;;;;;;;4935436;29;21036;-73
2023/11/23 16:56:57;;;;;;;4.17;2.03;;;;;;;;;;4935501;29;20497;-74
2023/11/23 16:59:24;;;;;;;9.47;3.00;;;;;;;;;;4935442;29;21037;-75
2023/11/23 17:01:50;;;;;;;2.60;1.57;;;;;;;;;;4935487;29;20449;-75
2023/11/23 17:04:17;;;;;;;6.53;2.43;;;;;;;;;;4935939;29;20418;-74
2023/11/23 17:06:44;;;;;;;3.30;2.00;;;;;;;;;;4935600;29;20409;-74
2023/11/23 17:09:10;;;;;;;4.47;2.80;;;;;;;;;;4931532;29;20432;-75
2023/11/23 17:11:36;;;;;;;3.13;1.73;;;;;;;;;;4932910;29;20537;-73
2023/11/23 17:14:03;;;;;;;2.30;2.07;;;;;;;;;;4935846;29;20561;-74
2023/11/23 17:16:29;;;;;;;3.50;1.80;;;;;;;;;;4935323;29;20436;-72
2023/11/23 17:18:55;;;;;;;3.90;2.07;;;;;;;;;;4935421;29;20526;-72
2023/11/23 17:21:21;;;;;;;6.20;3.00;;;;;;;;;;4935545;29;20512;-72
2023/11/23 17:23:47;;;;;;;3.33;1.83;;;;;;;;;;4935524;29;20422;-73
2023/11/23 17:26:15;;;;;;;4.10;2.10;;;;;;;;;;4935242;29;20465;-71
2023/11/23 17:28:43;;;;;;;3.80;2.13;;;;;;;;;;4935495;29;20421;-71
2023/11/23 17:31:09;;;;;;;3.97;2.10;;;;;;;;;;4934114;29;20941;-74
2023/11/23 17:33:35;;;;;;;5.60;2.40;;;;;;;;;;4927912;29;20466;-75
2023/11/23 17:36:02;;;;;;;2.80;1.87;;;;;;;;;;4917097;29;20449;-74
2023/11/23 17:38:28;;;;;;;17.13;5.13;;;;;;;;;;4917124;29;20863;-76
2023/11/23 17:40:54;;;;;;;9.97;4.53;;;;;;;;;;4926557;29;21050;-74
2023/11/23 17:43:20;;;;;;;13.87;4.63;;;;;;;;;;4935736;29;20469;-74
2023/11/23 17:45:50;;;;;;;5.67;2.80;;;;;;;;;;4927592;29;20431;-76
2023/11/23 17:48:16;;;;;;;4.43;2.37;;;;;;;;;;4916943;29;20422;-73
2023/11/23 17:50:42;;;;;;;4.37;2.83;;;;;;;;;;4920238;29;20813;-75
2023/11/23 17:53:11;;;;;;;6.73;2.80;;;;;;;;;;4928879;29;20495;-74
2023/11/23 17:55:37;;;;;;;2.93;2.30;;;;;;;;;;4934967;29;20405;-74
2023/11/23 17:58:04;;;;;;;4.93;2.30;;;;;;;;;;4933844;29;21065;-74
2023/11/23 18:00:31;;;;;;;8.33;3.77;;;;;;;;;;4934759;29;20895;-75
2023/11/23 18:02:58;;;;;;;3.57;2.30;;;;;;;;;;4935334;29;20417;-76
2023/11/23 18:05:24;;;;;;;10.27;3.30;;;;;;;;;;4934299;29;20436;-75
2023/11/23 18:07:50;;;;;;;15.90;4.90;;;;;;;;;;4934643;29;20878;-76
2023/11/23 18:10:16;;;;;;;5.90;3.00;;;;;;;;;;4934862;29;20428;-76
2023/11/23 18:12:42;;;;;;;7.10;2.83;;;;;;;;;;4934552;29;20468;-75
2023/11/23 18:15:11;;;;;;;4.23;2.70;;;;;;;;;;4934357;29;20905;-75
2023/11/23 18:17:37;;;;;;;3.50;2.30;;;;;;;;;;4930266;29;20485;-73
2023/11/23 18:20:04;;;;;;;2.20;2.00;;;;;;;;;;4918752;29;20422;-75
2023/11/23 18:22:31;;;;;;;10.43;3.87;;;;;;;;;;4915734;29;20446;-75
2023/11/23 18:24:57;;;;;;;7.23;3.80;;;;;;;;;;4916292;29;20454;-73
2023/11/23 18:27:23;;;;;;;5.70;2.93;;;;;;;;;;4917794;29;21108;-74
2023/11/23 18:29:49;;;;;;;5.70;3.23;;;;;;;;;;4930370;29;20789;-74
2023/11/23 18:32:15;;;;;;;11.53;3.80;;;;;;;;;;4934881;29;20475;-74
2023/11/23 18:34:41;;;;;;;11.37;3.73;;;;;;;;;;4934944;29;20794;-74
2023/11/23 18:37:12;;;;;;;2.80;2.27;;;;;;;;;;4934303;29;20413;-75
2023/11/23 18:39:38;;;;;;;7.90;4.10;;;;;;;;;;4934389;29;20413;-75
2023/11/23 18:42:04;;;;;;;6.33;3.40;;;;;;;;;;4936987;29;20434;-75
2023/11/23 18:44:30;;;;;;;5.17;3.60;;;;;;;;;;4941145;29;20418;-75
2023/11/23 18:46:56;;;;;;;5.07;2.57;;;;;;;;;;4940091;29;20835;-75
2023/11/23 18:49:27;;;;;;;5.03;2.60;;;;;;;;;;4940311;29;20424;-75
2023/11/23 18:51:54;;;;;;;5.13;3.07;;;;;;;;;;4939597;29;20460;-75
2023/11/23 18:54:20;;;;;;;4.70;2.20;;;;;;;;;;4939637;29;20496;-75
2023/11/23 18:56:46;;;;;;;3.83;2.73;;;;;;;;;;4938065;29;20496;-75
2023/11/23 18:59:12;;;;;;;3.00;2.00;;;;;;;;;;4934853;29;20905;-75
2023/11/23 19:01:38;;;;;;;2.23;2.03;;;;;;;;;;4934153;29;20449;-75
2023/11/23 19:04:05;;;;;;;4.60;2.73;;;;;;;;;;4934580;29;20516;-75
2023/11/23 19:06:31;;;;;;;5.30;2.40;;;;;;;;;;4933983;29;20557;-75
2023/11/23 19:08:58;;;;;;;8.73;2.87;;;;;;;;;;4934157;29;20421;-75
2023/11/23 19:11:27;;;;;;;3.67;2.53;;;;;;;;;;4934117;29;20436;-75
2023/11/23 19:13:53;;;;;;;6.00;3.50;;;;;;;;;;4934608;29;20461;-75
2023/11/23 19:16:19;;;;;;;4.53;3.03;;;;;;;;;;4935827;29;20416;-74
2023/11/23 19:18:49;;;;;;;6.27;3.50;;;;;;;;;;4938174;29;20413;-75
2023/11/23 19:21:18;;;;;;;5.70;2.90;;;;;;;;;;4937549;29;20429;-75
2023/11/23 19:23:44;;;;;;;13.60;6.03;;;;;;;;;;4937886;29;20421;-74
2023/11/23 19:26:11;;;;;;;16.60;6.63;;;;;;;;;;4946239;29;20448;-75
2023/11/23 19:28:38;;;;;;;16.83;8.00;;;;;;;;;;4940452;29;20789;-74
2023/11/23 19:31:05;;;;;;;18.40;7.10;;;;;;;;;;4938474;29;20525;-74
2023/11/23 19:33:31;;;;;;;11.50;5.40;;;;;;;;;;4937953;29;20465;-74
2023/11/23 19:35:57;;;;;;;10.83;4.53;;;;;;;;;;4937518;29;20500;-74
2023/11/23 19:38:23;;;;;;;5.70;3.73;;;;;;;;;;4937805;29;20417;-74
2023/11/23 19:40:50;;;;;;;7.53;3.40;;;;;;;;;;4937303;29;20433;-74
2023/11/23 19:43:16;;;;;;;5.47;3.50;;;;;;;;;;4937496;29;20409;-74
2023/11/23 19:45:42;;;;;;;7.70;3.27;;;;;;;;;;4935903;29;20524;-74
2023/11/23 19:48:08;;;;;;;10.53;3.70;;;;;;;;;;4936856;29;20460;-75
2023/11/23 19:50:35;;;;;;;3.57;2.80;;;;;;;;;;4937130;29;20520;-74
2023/11/23 19:53:01;;;;;;;4.97;2.13;;;;;;;;;;4941547;29;20497;-74
2023/11/23 19:55:28;;;;;;;3.80;2.70;;;;;;;;;;4941285;29;20860;-75
2023/11/23 19:57:54;;;;;;;6.00;2.27;;;;;;;;;;4942991;29;20897;-74
2023/11/23 20:00:20;;;;;;;2.70;2.30;;;;;;;;;;4941264;29;20453;-74
2023/11/23 20:02:46;;;;;;;1.90;1.83;;;;;;;;;;4940838;29;20429;-74
2023/11/23 20:05:12;;;;;;;3.97;2.37;;;;;;;;;;4938029;29;20414;-74
2023/11/23 20:07:38;;;;;;;2.77;2.40;;;;;;;;;;4936598;29;20928;-75
2023/11/23 20:10:06;;;;;;;9.63;2.83;;;;;;;;;;4937113;29;20503;-74
2023/11/23 20:12:32;;;;;;;3.60;2.47;;;;;;;;;;4933710;29;20445;-74
2023/11/23 20:14:58;;;;;;;3.13;2.53;;;;;;;;;;4920333;29;20485;-74
2023/11/23 20:17:25;;;;;;;3.50;2.40;;;;;;;;;;4917802;29;20413;-75
2023/11/23 20:19:51;;;;;;;2.67;2.30;;;;;;;;;;4918153;29;20416;-75
2023/11/23 20:22:17;;;;;;;5.87;2.00;;;;;;;;;;4935329;29;20444;-74
2023/11/23 20:24:43;;;;;;;2.97;2.10;;;;;;;;;;4936521;29;20550;-75
2023/11/23 20:27:09;;;;;;;3.80;2.10;;;;;;;;;;4936655;29;20432;-75
2023/11/23 20:29:36;;;;;;;4.10;2.40;;;;;;;;;;4936046;29;20442;-75
2023/11/23 20:32:02;;;;;;;3.47;2.40;;;;;;;;;;4936472;29;20452;-76
2023/11/23 20:34:28;;;;;;;3.27;2.67;;;;;;;;;;4936072;29;20504;-75
2023/11/23 20:36:55;;;;;;;3.90;2.90;;;;;;;;;;4936263;29;20410;-75
2023/11/23 20:39:21;;;;;;;4.50;2.80;;;;;;;;;;4936482;29;20441;-76